sensor_id;sensor_type;location;lat;lon;timestamp;P1;durP1;ratioP1;P2;durP2;ratioP2
36457;SDS011;22480;50.546;12.292;2023-08-24T00:02:05;9.60;;;8.25;;
36457;SDS011;22480;50.546;12.292;2023-08-24T00:04:32;10.27;;;9.38;;
36457;SDS011;22480;50.546;12.292;2023-08-24T00:06:59;10.75;;;9.75;;
36457;SDS011;22480;50.546;12.292;2023-08-24T00:09:25;12.85;;;10.05;;
36457;SDS011;22480;50.546;12.292;2023-08-24T00:11:51;11.98;;;10.88;;
36457;SDS011;22480;50.546;12.292;2023-08-24T00:14:18;10.82;;;9.68;;
36457;SDS011;22480;50.546;12.292;2023-08-24T00:16:44;12.00;;;10.05;;
36457;SDS011;22480;50.546;12.292;2023-08-24T00:19:10;12.23;;;10.88;;
36457;SDS011;22480;50.546;12.292;2023-08-24T00:21:36;11.75;;;10.65;;
36457;SDS011;22480;50.546;12.292;2023-08-24T00:24:01;11.95;;;10.75;;
36457;SDS011;22480;50.546;12.292;2023-08-24T00:26:27;11.43;;;10.35;;
36457;SDS011;22480;50.546;12.292;2023-08-24T00:28:53;13.00;;;10.20;;
36457;SDS011;22480;50.546;12.292;2023-08-24T00:31:19;12.30;;;10.73;;
36457;SDS011;22480;50.546;12.292;2023-08-24T00:33:47;10.60;;;9.55;;
36457;SDS011;22480;50.546;12.292;2023-08-24T00:36:15;9.82;;;8.77;;
36457;SDS011;22480;50.546;12.292;2023-08-24T00:38:43;9.38;;;8.48;;
36457;SDS011;22480;50.546;12.292;2023-08-24T00:41:08;8.98;;;8.18;;
36457;SDS011;22480;50.546;12.292;2023-08-24T00:43:34;9.35;;;8.48;;
36457;SDS011;22480;50.546;12.292;2023-08-24T00:46:01;9.77;;;8.20;;
36457;SDS011;22480;50.546;12.292;2023-08-24T00:48:29;9.88;;;8.68;;
36457;SDS011;22480;50.546;12.292;2023-08-24T00:50:59;12.82;;;9.43;;
36457;SDS011;22480;50.546;12.292;2023-08-24T00:55:53;9.20;;;8.23;;
36457;SDS011;22480;50.546;12.292;2023-08-24T00:58:19;9.43;;;8.40;;
36457;SDS011;22480;50.546;12.292;2023-08-24T01:00:46;9.32;;;7.80;;
36457;SDS011;22480;50.546;12.292;2023-08-24T01:03:13;10.30;;;9.25;;
36457;SDS011;22480;50.546;12.292;2023-08-24T01:05:41;8.23;;;7.50;;
36457;SDS011;22480;50.546;12.292;2023-08-24T01:08:08;10.43;;;8.52;;
36457;SDS011;22480;50.546;12.292;2023-08-24T01:10:40;11.00;;;8.25;;
36457;SDS011;22480;50.546;12.292;2023-08-24T01:13:14;13.02;;;8.20;;
36457;SDS011;22480;50.546;12.292;2023-08-24T01:15:48;9.95;;;8.25;;
36457;SDS011;22480;50.546;12.292;2023-08-24T01:18:16;10.13;;;8.93;;
36457;SDS011;22480;50.546;12.292;2023-08-24T01:20:44;11.95;;;8.27;;
36457;SDS011;22480;50.546;12.292;2023-08-24T01:26:28;9.48;;;8.25;;
36457;SDS011;22480;50.546;12.292;2023-08-24T01:28:56;11.82;;;8.20;;
36457;SDS011;22480;50.546;12.292;2023-08-24T01:31:24;10.38;;;8.95;;
36457;SDS011;22480;50.546;12.292;2023-08-24T01:33:50;9.98;;;8.18;;
36457;SDS011;22480;50.546;12.292;2023-08-24T01:36:16;12.00;;;8.55;;
36457;SDS011;22480;50.546;12.292;2023-08-24T01:38:42;10.93;;;8.30;;
36457;SDS011;22480;50.546;12.292;2023-08-24T01:41:11;9.13;;;8.27;;
36457;SDS011;22480;50.546;12.292;2023-08-24T01:43:43;9.30;;;8.40;;
36457;SDS011;22480;50.546;12.292;2023-08-24T01:46:12;10.70;;;8.85;;
36457;SDS011;22480;50.546;12.292;2023-08-24T01:48:40;9.73;;;8.10;;
36457;SDS011;22480;50.546;12.292;2023-08-24T01:51:07;11.10;;;9.23;;
36457;SDS011;22480;50.546;12.292;2023-08-24T01:53:35;10.00;;;8.98;;
36457;SDS011;22480;50.546;12.292;2023-08-24T01:56:07;11.05;;;9.95;;
36457;SDS011;22480;50.546;12.292;2023-08-24T01:58:37;11.65;;;10.30;;
36457;SDS011;22480;50.546;12.292;2023-08-24T02:01:04;11.23;;;10.13;;
36457;SDS011;22480;50.546;12.292;2023-08-24T02:03:30;12.45;;;11.25;;
36457;SDS011;22480;50.546;12.292;2023-08-24T02:05:56;11.50;;;10.32;;
36457;SDS011;22480;50.546;12.292;2023-08-24T02:08:22;11.93;;;10.68;;
36457;SDS011;22480;50.546;12.292;2023-08-24T02:10:48;13.00;;;11.15;;
36457;SDS011;22480;50.546;12.292;2023-08-24T02:13:13;12.77;;;11.43;;
36457;SDS011;22480;50.546;12.292;2023-08-24T02:15:39;12.82;;;11.57;;
36457;SDS011;22480;50.546;12.292;2023-08-24T02:18:06;14.13;;;11.52;;
36457;SDS011;22480;50.546;12.292;2023-08-24T02:20:35;12.65;;;11.35;;
36457;SDS011;22480;50.546;12.292;2023-08-24T02:25:28;10.55;;;9.48;;
36457;SDS011;22480;50.546;12.292;2023-08-24T02:27:54;10.38;;;9.38;;
36457;SDS011;22480;50.546;12.292;2023-08-24T02:30:20;12.13;;;10.70;;
36457;SDS011;22480;50.546;12.292;2023-08-24T02:32:45;10.98;;;9.98;;
36457;SDS011;22480;50.546;12.292;2023-08-24T02:35:11;13.73;;;9.75;;
36457;SDS011;22480;50.546;12.292;2023-08-24T02:37:37;11.55;;;10.10;;
36457;SDS011;22480;50.546;12.292;2023-08-24T02:40:03;10.65;;;9.50;;
36457;SDS011;22480;50.546;12.292;2023-08-24T02:42:33;11.10;;;9.82;;
36457;SDS011;22480;50.546;12.292;2023-08-24T02:44:58;10.55;;;9.45;;
36457;SDS011;22480;50.546;12.292;2023-08-24T02:47:24;11.45;;;10.07;;
36457;SDS011;22480;50.546;12.292;2023-08-24T02:49:50;11.18;;;9.98;;
36457;SDS011;22480;50.546;12.292;2023-08-24T02:52:16;12.32;;;10.75;;
36457;SDS011;22480;50.546;12.292;2023-08-24T02:54:42;14.07;;;11.20;;
36457;SDS011;22480;50.546;12.292;2023-08-24T02:57:08;11.15;;;10.05;;
36457;SDS011;22480;50.546;12.292;2023-08-24T02:59:34;11.60;;;10.52;;
36457;SDS011;22480;50.546;12.292;2023-08-24T03:02:00;11.05;;;10.00;;
36457;SDS011;22480;50.546;12.292;2023-08-24T03:04:26;12.18;;;10.05;;
36457;SDS011;22480;50.546;12.292;2023-08-24T03:06:52;11.23;;;9.50;;
36457;SDS011;22480;50.546;12.292;2023-08-24T03:09:18;9.60;;;8.70;;
36457;SDS011;22480;50.546;12.292;2023-08-24T03:11:44;9.95;;;9.05;;
36457;SDS011;22480;50.546;12.292;2023-08-24T03:14:10;10.40;;;9.35;;
36457;SDS011;22480;50.546;12.292;2023-08-24T03:16:37;11.60;;;10.63;;
36457;SDS011;22480;50.546;12.292;2023-08-24T03:19:04;11.35;;;10.13;;
36457;SDS011;22480;50.546;12.292;2023-08-24T03:21:31;10.70;;;9.65;;
36457;SDS011;22480;50.546;12.292;2023-08-24T03:23:57;10.60;;;9.18;;
36457;SDS011;22480;50.546;12.292;2023-08-24T03:26:23;10.13;;;9.20;;
36457;SDS011;22480;50.546;12.292;2023-08-24T03:28:49;12.77;;;10.23;;
36457;SDS011;22480;50.546;12.292;2023-08-24T03:31:15;11.13;;;9.73;;
36457;SDS011;22480;50.546;12.292;2023-08-24T03:33:41;12.05;;;9.43;;
36457;SDS011;22480;50.546;12.292;2023-08-24T03:36:07;10.75;;;9.60;;
36457;SDS011;22480;50.546;12.292;2023-08-24T03:38:32;13.02;;;10.45;;
36457;SDS011;22480;50.546;12.292;2023-08-24T03:41:01;11.38;;;10.20;;
36457;SDS011;22480;50.546;12.292;2023-08-24T03:43:31;11.05;;;10.02;;
36457;SDS011;22480;50.546;12.292;2023-08-24T03:45:59;11.90;;;10.70;;
36457;SDS011;22480;50.546;12.292;2023-08-24T03:48:26;10.70;;;9.65;;
36457;SDS011;22480;50.546;12.292;2023-08-24T03:50:55;11.07;;;10.07;;
36457;SDS011;22480;50.546;12.292;2023-08-24T03:53:22;11.30;;;10.20;;
36457;SDS011;22480;50.546;12.292;2023-08-24T03:55:48;10.57;;;9.48;;
36457;SDS011;22480;50.546;12.292;2023-08-24T03:58:17;10.55;;;9.48;;
36457;SDS011;22480;50.546;12.292;2023-08-24T04:00:43;12.00;;;10.80;;
36457;SDS011;22480;50.546;12.292;2023-08-24T04:03:09;12.23;;;10.93;;
36457;SDS011;22480;50.546;12.292;2023-08-24T04:05:35;11.15;;;9.85;;
36457;SDS011;22480;50.546;12.292;2023-08-24T04:08:01;11.20;;;10.18;;
36457;SDS011;22480;50.546;12.292;2023-08-24T04:10:27;13.13;;;10.80;;
36457;SDS011;22480;50.546;12.292;2023-08-24T04:12:57;12.45;;;11.10;;
36457;SDS011;22480;50.546;12.292;2023-08-24T04:15:23;13.18;;;11.93;;
36457;SDS011;22480;50.546;12.292;2023-08-24T04:17:49;14.15;;;11.02;;
36457;SDS011;22480;50.546;12.292;2023-08-24T04:20:16;11.57;;;10.50;;
36457;SDS011;22480;50.546;12.292;2023-08-24T04:22:41;11.35;;;10.15;;
36457;SDS011;22480;50.546;12.292;2023-08-24T04:25:07;11.68;;;10.23;;
36457;SDS011;22480;50.546;12.292;2023-08-24T04:27:34;11.30;;;10.23;;
36457;SDS011;22480;50.546;12.292;2023-08-24T04:30:00;11.77;;;9.60;;
36457;SDS011;22480;50.546;12.292;2023-08-24T04:32:25;11.88;;;9.20;;
36457;SDS011;22480;50.546;12.292;2023-08-24T04:34:52;12.88;;;9.38;;
36457;SDS011;22480;50.546;12.292;2023-08-24T04:37:18;9.65;;;8.57;;
36457;SDS011;22480;50.546;12.292;2023-08-24T04:39:44;11.07;;;10.00;;
36457;SDS011;22480;50.546;12.292;2023-08-24T04:42:09;11.75;;;8.55;;
36457;SDS011;22480;50.546;12.292;2023-08-24T04:44:35;10.20;;;8.23;;
36457;SDS011;22480;50.546;12.292;2023-08-24T04:47:01;9.75;;;8.68;;
36457;SDS011;22480;50.546;12.292;2023-08-24T04:49:26;9.98;;;8.55;;
36457;SDS011;22480;50.546;12.292;2023-08-24T04:51:53;10.63;;;8.30;;
36457;SDS011;22480;50.546;12.292;2023-08-24T04:54:19;11.25;;;8.38;;
36457;SDS011;22480;50.546;12.292;2023-08-24T04:56:45;10.70;;;8.07;;
36457;SDS011;22480;50.546;12.292;2023-08-24T04:59:10;10.95;;;8.52;;
36457;SDS011;22480;50.546;12.292;2023-08-24T05:01:36;9.52;;;8.43;;
36457;SDS011;22480;50.546;12.292;2023-08-24T05:04:02;9.60;;;8.10;;
36457;SDS011;22480;50.546;12.292;2023-08-24T05:06:28;11.57;;;8.00;;
36457;SDS011;22480;50.546;12.292;2023-08-24T05:08:54;9.30;;;8.40;;
36457;SDS011;22480;50.546;12.292;2023-08-24T05:11:21;8.18;;;7.07;;
36457;SDS011;22480;50.546;12.292;2023-08-24T05:13:51;8.60;;;7.70;;
36457;SDS011;22480;50.546;12.292;2023-08-24T05:16:17;8.55;;;7.55;;
36457;SDS011;22480;50.546;12.292;2023-08-24T05:18:43;7.45;;;6.75;;
36457;SDS011;22480;50.546;12.292;2023-08-24T05:21:08;9.55;;;6.93;;
36457;SDS011;22480;50.546;12.292;2023-08-24T05:23:34;8.32;;;7.45;;
36457;SDS011;22480;50.546;12.292;2023-08-24T05:26:00;8.25;;;7.07;;
36457;SDS011;22480;50.546;12.292;2023-08-24T05:28:27;11.43;;;6.80;;
36457;SDS011;22480;50.546;12.292;2023-08-24T05:30:54;9.73;;;6.97;;
36457;SDS011;22480;50.546;12.292;2023-08-24T05:33:21;10.57;;;6.43;;
36457;SDS011;22480;50.546;12.292;2023-08-24T05:35:48;6.50;;;5.90;;
36457;SDS011;22480;50.546;12.292;2023-08-24T05:38:15;6.35;;;5.28;;
36457;SDS011;22480;50.546;12.292;2023-08-24T05:40:46;6.75;;;4.10;;
36457;SDS011;22480;50.546;12.292;2023-08-24T05:43:13;5.13;;;4.60;;
36457;SDS011;22480;50.546;12.292;2023-08-24T05:45:38;6.85;;;4.10;;
36457;SDS011;22480;50.546;12.292;2023-08-24T05:48:06;7.68;;;3.90;;
36457;SDS011;22480;50.546;12.292;2023-08-24T05:50:32;6.97;;;4.43;;
36457;SDS011;22480;50.546;12.292;2023-08-24T05:52:58;5.68;;;3.70;;
36457;SDS011;22480;50.546;12.292;2023-08-24T05:55:24;6.68;;;4.35;;
36457;SDS011;22480;50.546;12.292;2023-08-24T05:57:49;7.28;;;3.33;;
36457;SDS011;22480;50.546;12.292;2023-08-24T06:00:15;7.28;;;4.05;;
36457;SDS011;22480;50.546;12.292;2023-08-24T06:02:41;5.63;;;4.15;;
36457;SDS011;22480;50.546;12.292;2023-08-24T06:05:07;8.18;;;4.05;;
36457;SDS011;22480;50.546;12.292;2023-08-24T06:07:33;7.93;;;3.80;;
36457;SDS011;22480;50.546;12.292;2023-08-24T06:10:00;6.18;;;3.78;;
36457;SDS011;22480;50.546;12.292;2023-08-24T06:12:25;7.78;;;4.10;;
36457;SDS011;22480;50.546;12.292;2023-08-24T06:14:51;4.22;;;3.83;;
36457;SDS011;22480;50.546;12.292;2023-08-24T06:17:17;5.50;;;3.97;;
36457;SDS011;22480;50.546;12.292;2023-08-24T06:19:42;6.57;;;3.88;;
36457;SDS011;22480;50.546;12.292;2023-08-24T06:22:08;4.72;;;3.47;;
36457;SDS011;22480;50.546;12.292;2023-08-24T06:24:34;5.28;;;4.07;;
36457;SDS011;22480;50.546;12.292;2023-08-24T06:27:00;5.70;;;3.30;;
36457;SDS011;22480;50.546;12.292;2023-08-24T06:29:27;4.90;;;3.38;;
36457;SDS011;22480;50.546;12.292;2023-08-24T06:31:54;8.32;;;3.65;;
36457;SDS011;22480;50.546;12.292;2023-08-24T06:34:20;5.28;;;3.83;;
36457;SDS011;22480;50.546;12.292;2023-08-24T06:36:46;7.53;;;4.22;;
36457;SDS011;22480;50.546;12.292;2023-08-24T06:39:12;7.50;;;3.38;;
36457;SDS011;22480;50.546;12.292;2023-08-24T06:41:38;4.80;;;3.53;;
36457;SDS011;22480;50.546;12.292;2023-08-24T06:44:06;7.70;;;3.10;;
36457;SDS011;22480;50.546;12.292;2023-08-24T06:46:32;6.07;;;3.53;;
36457;SDS011;22480;50.546;12.292;2023-08-24T06:48:58;10.90;;;3.53;;
36457;SDS011;22480;50.546;12.292;2023-08-24T06:51:24;5.53;;;3.45;;
36457;SDS011;22480;50.546;12.292;2023-08-24T06:53:50;5.70;;;3.10;;
36457;SDS011;22480;50.546;12.292;2023-08-24T06:56:16;4.95;;;3.20;;
36457;SDS011;22480;50.546;12.292;2023-08-24T06:58:43;5.90;;;3.45;;
36457;SDS011;22480;50.546;12.292;2023-08-24T07:01:10;10.38;;;3.67;;
36457;SDS011;22480;50.546;12.292;2023-08-24T07:03:36;6.75;;;3.13;;
36457;SDS011;22480;50.546;12.292;2023-08-24T07:06:02;6.78;;;2.50;;
36457;SDS011;22480;50.546;12.292;2023-08-24T07:08:31;9.10;;;3.05;;
36457;SDS011;22480;50.546;12.292;2023-08-24T07:10:57;8.48;;;3.28;;
36457;SDS011;22480;50.546;12.292;2023-08-24T07:13:22;4.47;;;2.60;;
36457;SDS011;22480;50.546;12.292;2023-08-24T07:15:48;4.32;;;2.65;;
36457;SDS011;22480;50.546;12.292;2023-08-24T07:18:15;8.73;;;2.90;;
36457;SDS011;22480;50.546;12.292;2023-08-24T07:20:40;5.22;;;2.63;;
36457;SDS011;22480;50.546;12.292;2023-08-24T07:23:06;8.60;;;3.03;;
36457;SDS011;22480;50.546;12.292;2023-08-24T07:25:32;4.72;;;2.50;;
36457;SDS011;22480;50.546;12.292;2023-08-24T07:27:57;5.20;;;2.72;;
36457;SDS011;22480;50.546;12.292;2023-08-24T07:30:26;3.97;;;2.50;;
36457;SDS011;22480;50.546;12.292;2023-08-24T07:32:53;3.00;;;2.30;;
36457;SDS011;22480;50.546;12.292;2023-08-24T07:35:19;4.00;;;2.25;;
36457;SDS011;22480;50.546;12.292;2023-08-24T07:37:49;5.85;;;2.55;;
36457;SDS011;22480;50.546;12.292;2023-08-24T07:40:14;9.80;;;2.53;;
36457;SDS011;22480;50.546;12.292;2023-08-24T07:42:48;6.05;;;2.40;;
36457;SDS011;22480;50.546;12.292;2023-08-24T07:45:16;7.75;;;3.13;;
36457;SDS011;22480;50.546;12.292;2023-08-24T07:47:42;5.78;;;2.67;;
36457;SDS011;22480;50.546;12.292;2023-08-24T07:50:09;8.20;;;3.08;;
36457;SDS011;22480;50.546;12.292;2023-08-24T07:52:38;7.22;;;2.08;;
36457;SDS011;22480;50.546;12.292;2023-08-24T07:55:04;6.57;;;2.90;;
36457;SDS011;22480;50.546;12.292;2023-08-24T07:57:34;6.93;;;2.40;;
36457;SDS011;22480;50.546;12.292;2023-08-24T08:00:00;3.67;;;2.45;;
36457;SDS011;22480;50.546;12.292;2023-08-24T08:02:37;6.30;;;2.65;;
36457;SDS011;22480;50.546;12.292;2023-08-24T08:05:03;6.70;;;2.78;;
36457;SDS011;22480;50.546;12.292;2023-08-24T08:07:31;2.90;;;2.25;;
36457;SDS011;22480;50.546;12.292;2023-08-24T08:09:57;6.78;;;2.65;;
36457;SDS011;22480;50.546;12.292;2023-08-24T08:12:22;3.97;;;2.40;;
36457;SDS011;22480;50.546;12.292;2023-08-24T08:14:48;6.68;;;2.60;;
36457;SDS011;22480;50.546;12.292;2023-08-24T08:17:15;3.33;;;2.20;;
36457;SDS011;22480;50.546;12.292;2023-08-24T08:19:40;7.18;;;2.65;;
36457;SDS011;22480;50.546;12.292;2023-08-24T08:22:06;6.18;;;2.92;;
36457;SDS011;22480;50.546;12.292;2023-08-24T08:24:33;2.78;;;2.22;;
36457;SDS011;22480;50.546;12.292;2023-08-24T08:26:58;6.88;;;2.40;;
36457;SDS011;22480;50.546;12.292;2023-08-24T08:29:25;4.90;;;2.17;;
36457;SDS011;22480;50.546;12.292;2023-08-24T08:31:50;8.48;;;2.10;;
36457;SDS011;22480;50.546;12.292;2023-08-24T08:34:16;4.88;;;2.20;;
36457;SDS011;22480;50.546;12.292;2023-08-24T08:36:42;7.45;;;1.90;;
36457;SDS011;22480;50.546;12.292;2023-08-24T08:39:08;5.05;;;2.25;;
36457;SDS011;22480;50.546;12.292;2023-08-24T08:41:37;5.78;;;2.45;;
36457;SDS011;22480;50.546;12.292;2023-08-24T08:44:08;5.13;;;2.25;;
36457;SDS011;22480;50.546;12.292;2023-08-24T08:46:36;2.13;;;1.70;;
36457;SDS011;22480;50.546;12.292;2023-08-24T08:49:04;6.55;;;2.45;;
36457;SDS011;22480;50.546;12.292;2023-08-24T08:51:33;3.95;;;1.98;;
36457;SDS011;22480;50.546;12.292;2023-08-24T08:54:00;5.07;;;2.40;;
36457;SDS011;22480;50.546;12.292;2023-08-24T08:56:28;6.88;;;2.17;;
36457;SDS011;22480;50.546;12.292;2023-08-24T08:58:55;4.80;;;2.03;;
36457;SDS011;22480;50.546;12.292;2023-08-24T09:01:22;3.05;;;2.10;;
36457;SDS011;22480;50.546;12.292;2023-08-24T09:03:48;5.50;;;2.00;;
36457;SDS011;22480;50.546;12.292;2023-08-24T09:06:14;4.22;;;2.22;;
36457;SDS011;22480;50.546;12.292;2023-08-24T09:08:40;2.65;;;2.15;;
36457;SDS011;22480;50.546;12.292;2023-08-24T09:11:06;3.97;;;1.80;;
36457;SDS011;22480;50.546;12.292;2023-08-24T09:13:33;4.10;;;1.67;;
36457;SDS011;22480;50.546;12.292;2023-08-24T09:16:05;3.50;;;1.50;;
36457;SDS011;22480;50.546;12.292;2023-08-24T09:18:38;3.50;;;1.83;;
36457;SDS011;22480;50.546;12.292;2023-08-24T09:21:11;3.28;;;1.83;;
36457;SDS011;22480;50.546;12.292;2023-08-24T09:23:38;2.10;;;1.90;;
36457;SDS011;22480;50.546;12.292;2023-08-24T09:26:10;6.28;;;2.08;;
36457;SDS011;22480;50.546;12.292;2023-08-24T09:28:35;5.13;;;2.60;;
36457;SDS011;22480;50.546;12.292;2023-08-24T09:31:04;2.97;;;2.25;;
36457;SDS011;22480;50.546;12.292;2023-08-24T09:33:30;4.45;;;1.90;;
36457;SDS011;22480;50.546;12.292;2023-08-24T09:35:56;5.22;;;2.08;;
36457;SDS011;22480;50.546;12.292;2023-08-24T09:38:27;3.00;;;1.98;;
36457;SDS011;22480;50.546;12.292;2023-08-24T09:40:54;4.88;;;2.17;;
36457;SDS011;22480;50.546;12.292;2023-08-24T09:43:21;4.30;;;2.00;;
36457;SDS011;22480;50.546;12.292;2023-08-24T09:48:15;5.22;;;2.03;;
36457;SDS011;22480;50.546;12.292;2023-08-24T09:50:42;4.70;;;2.00;;
36457;SDS011;22480;50.546;12.292;2023-08-24T09:53:15;5.63;;;2.28;;
36457;SDS011;22480;50.546;12.292;2023-08-24T09:56:08;5.70;;;2.42;;
36457;SDS011;22480;50.546;12.292;2023-08-24T09:58:34;5.70;;;2.40;;
36457;SDS011;22480;50.546;12.292;2023-08-24T10:01:00;4.97;;;2.33;;
36457;SDS011;22480;50.546;12.292;2023-08-24T10:03:28;4.53;;;2.20;;
36457;SDS011;22480;50.546;12.292;2023-08-24T10:05:57;4.60;;;2.43;;
36457;SDS011;22480;50.546;12.292;2023-08-24T10:08:26;3.95;;;2.20;;
36457;SDS011;22480;50.546;12.292;2023-08-24T10:10:54;6.57;;;2.47;;
36457;SDS011;22480;50.546;12.292;2023-08-24T10:13:24;5.53;;;2.95;;
36457;SDS011;22480;50.546;12.292;2023-08-24T10:16:03;6.03;;;2.38;;
36457;SDS011;22480;50.546;12.292;2023-08-24T10:18:30;3.60;;;2.55;;
36457;SDS011;22480;50.546;12.292;2023-08-24T10:20:56;7.35;;;2.55;;
36457;SDS011;22480;50.546;12.292;2023-08-24T10:23:23;5.22;;;2.42;;
36457;SDS011;22480;50.546;12.292;2023-08-24T10:25:51;6.15;;;2.22;;
36457;SDS011;22480;50.546;12.292;2023-08-24T10:28:18;2.17;;;1.98;;
36457;SDS011;22480;50.546;12.292;2023-08-24T10:30:45;6.32;;;2.17;;
36457;SDS011;22480;50.546;12.292;2023-08-24T10:33:13;3.50;;;2.08;;
36457;SDS011;22480;50.546;12.292;2023-08-24T10:35:39;6.15;;;2.55;;
36457;SDS011;22480;50.546;12.292;2023-08-24T10:38:07;9.23;;;2.92;;
36457;SDS011;22480;50.546;12.292;2023-08-24T10:40:36;22.15;;;3.40;;
36457;SDS011;22480;50.546;12.292;2023-08-24T10:43:09;7.25;;;2.92;;
36457;SDS011;22480;50.546;12.292;2023-08-24T10:48:29;4.32;;;2.00;;
36457;SDS011;22480;50.546;12.292;2023-08-24T10:53:44;4.55;;;2.25;;
36457;SDS011;22480;50.546;12.292;2023-08-24T10:56:11;3.08;;;1.83;;
36457;SDS011;22480;50.546;12.292;2023-08-24T10:58:37;4.18;;;2.00;;
36457;SDS011;22480;50.546;12.292;2023-08-24T11:01:03;6.13;;;2.08;;
36457;SDS011;22480;50.546;12.292;2023-08-24T11:03:32;5.00;;;2.20;;
36457;SDS011;22480;50.546;12.292;2023-08-24T11:05:58;2.80;;;1.77;;
36457;SDS011;22480;50.546;12.292;2023-08-24T11:11:22;2.88;;;1.92;;
36457;SDS011;22480;50.546;12.292;2023-08-24T11:16:43;3.78;;;2.22;;
36457;SDS011;22480;50.546;12.292;2023-08-24T11:19:11;4.30;;;2.30;;
36457;SDS011;22480;50.546;12.292;2023-08-24T11:21:38;2.55;;;2.05;;
36457;SDS011;22480;50.546;12.292;2023-08-24T11:24:04;2.20;;;2.00;;
36457;SDS011;22480;50.546;12.292;2023-08-24T11:26:31;5.00;;;2.10;;
36457;SDS011;22480;50.546;12.292;2023-08-24T11:28:56;2.83;;;2.47;;
36457;SDS011;22480;50.546;12.292;2023-08-24T11:31:23;5.32;;;2.42;;
36457;SDS011;22480;50.546;12.292;2023-08-24T11:33:53;2.47;;;2.05;;
36457;SDS011;22480;50.546;12.292;2023-08-24T11:36:20;2.58;;;2.15;;
36457;SDS011;22480;50.546;12.292;2023-08-24T11:38:48;4.32;;;2.50;;
36457;SDS011;22480;50.546;12.292;2023-08-24T11:41:19;5.35;;;2.17;;
36457;SDS011;22480;50.546;12.292;2023-08-24T11:43:46;3.88;;;2.30;;
36457;SDS011;22480;50.546;12.292;2023-08-24T11:46:15;3.65;;;2.35;;
36457;SDS011;22480;50.546;12.292;2023-08-24T11:48:43;5.20;;;2.40;;
36457;SDS011;22480;50.546;12.292;2023-08-24T11:51:09;4.95;;;2.63;;
36457;SDS011;22480;50.546;12.292;2023-08-24T11:53:42;3.65;;;2.20;;
36457;SDS011;22480;50.546;12.292;2023-08-24T11:56:09;3.35;;;2.15;;
36457;SDS011;22480;50.546;12.292;2023-08-24T11:58:42;4.75;;;2.25;;
36457;SDS011;22480;50.546;12.292;2023-08-24T12:01:12;2.38;;;1.92;;
36457;SDS011;22480;50.546;12.292;2023-08-24T12:03:38;4.18;;;2.03;;
36457;SDS011;22480;50.546;12.292;2023-08-24T12:06:15;5.03;;;2.15;;
36457;SDS011;22480;50.546;12.292;2023-08-24T12:08:42;6.57;;;2.63;;
36457;SDS011;22480;50.546;12.292;2023-08-24T12:11:16;3.75;;;1.92;;
36457;SDS011;22480;50.546;12.292;2023-08-24T12:13:44;4.28;;;2.63;;
36457;SDS011;22480;50.546;12.292;2023-08-24T12:16:17;4.03;;;2.45;;
36457;SDS011;22480;50.546;12.292;2023-08-24T12:19:02;3.72;;;2.08;;
36457;SDS011;22480;50.546;12.292;2023-08-24T12:21:31;2.97;;;2.00;;
36457;SDS011;22480;50.546;12.292;2023-08-24T12:24:01;3.55;;;2.22;;
36457;SDS011;22480;50.546;12.292;2023-08-24T12:26:31;4.20;;;2.20;;
36457;SDS011;22480;50.546;12.292;2023-08-24T12:29:01;4.07;;;2.22;;
36457;SDS011;22480;50.546;12.292;2023-08-24T12:31:30;6.72;;;2.72;;
36457;SDS011;22480;50.546;12.292;2023-08-24T12:36:28;4.10;;;2.03;;
36457;SDS011;22480;50.546;12.292;2023-08-24T12:38:54;8.07;;;2.55;;
36457;SDS011;22480;50.546;12.292;2023-08-24T12:41:20;4.03;;;2.55;;
36457;SDS011;22480;50.546;12.292;2023-08-24T12:43:47;4.10;;;2.00;;
36457;SDS011;22480;50.546;12.292;2023-08-24T12:46:12;3.00;;;2.28;;
36457;SDS011;22480;50.546;12.292;2023-08-24T12:48:38;3.42;;;2.17;;
36457;SDS011;22480;50.546;12.292;2023-08-24T12:51:04;4.88;;;2.25;;
36457;SDS011;22480;50.546;12.292;2023-08-24T12:53:30;3.53;;;1.90;;
36457;SDS011;22480;50.546;12.292;2023-08-24T12:55:56;2.95;;;2.15;;
36457;SDS011;22480;50.546;12.292;2023-08-24T12:58:21;2.85;;;1.90;;
36457;SDS011;22480;50.546;12.292;2023-08-24T13:00:47;3.42;;;1.90;;
36457;SDS011;22480;50.546;12.292;2023-08-24T13:03:14;2.78;;;1.98;;
36457;SDS011;22480;50.546;12.292;2023-08-24T13:05:39;4.82;;;1.92;;
36457;SDS011;22480;50.546;12.292;2023-08-24T13:08:05;6.10;;;2.25;;
36457;SDS011;22480;50.546;12.292;2023-08-24T13:10:31;4.90;;;2.20;;
36457;SDS011;22480;50.546;12.292;2023-08-24T13:12:56;3.72;;;2.35;;
36457;SDS011;22480;50.546;12.292;2023-08-24T13:15:22;5.60;;;2.17;;
36457;SDS011;22480;50.546;12.292;2023-08-24T13:17:48;3.15;;;2.25;;
36457;SDS011;22480;50.546;12.292;2023-08-24T13:20:15;3.65;;;2.40;;
36457;SDS011;22480;50.546;12.292;2023-08-24T13:22:41;4.55;;;2.50;;
36457;SDS011;22480;50.546;12.292;2023-08-24T13:25:07;3.97;;;2.50;;
36457;SDS011;22480;50.546;12.292;2023-08-24T13:27:33;4.65;;;2.55;;
36457;SDS011;22480;50.546;12.292;2023-08-24T13:30:02;3.42;;;2.13;;
36457;SDS011;22480;50.546;12.292;2023-08-24T13:32:29;6.22;;;2.42;;
36457;SDS011;22480;50.546;12.292;2023-08-24T13:34:55;5.05;;;2.33;;
36457;SDS011;22480;50.546;12.292;2023-08-24T13:37:21;5.03;;;2.40;;
36457;SDS011;22480;50.546;12.292;2023-08-24T13:39:48;2.83;;;2.45;;
36457;SDS011;22480;50.546;12.292;2023-08-24T13:42:14;4.60;;;2.45;;
36457;SDS011;22480;50.546;12.292;2023-08-24T13:44:39;4.90;;;2.60;;
36457;SDS011;22480;50.546;12.292;2023-08-24T13:47:05;7.90;;;2.88;;
36457;SDS011;22480;50.546;12.292;2023-08-24T13:49:31;6.53;;;2.90;;
36457;SDS011;22480;50.546;12.292;2023-08-24T13:51:57;2.90;;;2.30;;
36457;SDS011;22480;50.546;12.292;2023-08-24T13:54:22;4.75;;;2.40;;
36457;SDS011;22480;50.546;12.292;2023-08-24T13:56:50;5.45;;;2.45;;
36457;SDS011;22480;50.546;12.292;2023-08-24T13:59:15;3.28;;;2.28;;
36457;SDS011;22480;50.546;12.292;2023-08-24T14:01:41;5.43;;;2.38;;
36457;SDS011;22480;50.546;12.292;2023-08-24T14:04:07;5.05;;;2.15;;
36457;SDS011;22480;50.546;12.292;2023-08-24T14:06:33;3.47;;;2.20;;
36457;SDS011;22480;50.546;12.292;2023-08-24T14:09:01;4.38;;;2.10;;
36457;SDS011;22480;50.546;12.292;2023-08-24T14:11:30;4.40;;;2.60;;
36457;SDS011;22480;50.546;12.292;2023-08-24T14:13:57;4.97;;;2.30;;
36457;SDS011;22480;50.546;12.292;2023-08-24T14:16:23;2.58;;;2.22;;
36457;SDS011;22480;50.546;12.292;2023-08-24T14:18:49;3.35;;;2.30;;
36457;SDS011;22480;50.546;12.292;2023-08-24T14:21:16;2.40;;;1.90;;
36457;SDS011;22480;50.546;12.292;2023-08-24T14:23:42;5.20;;;2.22;;
36457;SDS011;22480;50.546;12.292;2023-08-24T14:26:07;4.00;;;2.10;;
36457;SDS011;22480;50.546;12.292;2023-08-24T14:31:19;4.07;;;2.28;;
36457;SDS011;22480;50.546;12.292;2023-08-24T14:33:45;4.78;;;2.53;;
36457;SDS011;22480;50.546;12.292;2023-08-24T14:36:11;4.47;;;2.63;;
36457;SDS011;22480;50.546;12.292;2023-08-24T14:38:40;3.25;;;2.45;;
36457;SDS011;22480;50.546;12.292;2023-08-24T14:41:07;2.88;;;2.13;;
36457;SDS011;22480;50.546;12.292;2023-08-24T14:43:34;4.25;;;2.47;;
36457;SDS011;22480;50.546;12.292;2023-08-24T14:45:59;2.35;;;2.03;;
36457;SDS011;22480;50.546;12.292;2023-08-24T14:48:25;5.50;;;2.00;;
36457;SDS011;22480;50.546;12.292;2023-08-24T14:50:51;2.60;;;2.22;;
36457;SDS011;22480;50.546;12.292;2023-08-24T14:53:17;2.75;;;2.15;;
36457;SDS011;22480;50.546;12.292;2023-08-24T14:55:42;3.42;;;2.13;;